createdAt,value
2022-10-11T00:00:14.507Z,2.23
2022-10-11T00:02:41.978Z,3.17
2022-10-11T00:05:09.952Z,3.37
2022-10-11T00:07:40.370Z,1.87
2022-10-11T00:10:08.171Z,2.20
2022-10-11T00:12:35.996Z,1.80
2022-10-11T00:15:04.467Z,2.03
2022-10-11T00:17:32.604Z,1.40
2022-10-11T00:20:00.118Z,3.37
2022-10-11T00:22:27.571Z,2.03
2022-10-11T00:24:55.159Z,1.43
2022-10-11T00:27:22.594Z,1.43
2022-10-11T00:29:50.031Z,1.73
2022-10-11T00:32:17.628Z,2.07
2022-10-11T00:34:45.288Z,1.27
2022-10-11T00:37:12.734Z,1.30
2022-10-11T00:39:40.103Z,1.27
2022-10-11T00:42:12.339Z,1.90
2022-10-11T00:44:41.673Z,1.37
2022-10-11T00:47:15.482Z,3.43
2022-10-11T00:49:51.972Z,3.53
2022-10-11T00:52:37.557Z,1.60
2022-10-11T00:55:08.122Z,1.07
2022-10-11T00:57:37.837Z,1.53
2022-10-11T01:00:08.604Z,2.00
2022-10-11T01:02:36.274Z,4.53
2022-10-11T01:05:27.545Z,2.00
2022-10-11T01:07:52.733Z,2.13
2022-10-11T01:10:20.312Z,1.40
2022-10-11T01:12:57.979Z,1.67
2022-10-11T01:15:45.617Z,2.00
2022-10-11T01:18:20.836Z,1.23
2022-10-11T01:21:13.851Z,1.07
2022-10-11T01:23:49.824Z,1.17
2022-10-11T01:26:23.220Z,2.10
2022-10-11T01:28:53.093Z,5.10
2022-10-11T01:31:20.508Z,1.97
2022-10-11T01:33:54.240Z,1.67
2022-10-11T01:36:37.583Z,1.67
2022-10-11T01:39:04.970Z,2.27
2022-10-11T01:41:36.301Z,3.90
2022-10-11T01:44:04.621Z,2.93
2022-10-11T01:46:32.317Z,1.60
2022-10-11T01:49:00.943Z,5.77
2022-10-11T01:51:29.984Z,2.07
2022-10-11T01:54:00.607Z,1.20
2022-10-11T01:56:46.302Z,1.50
2022-10-11T01:59:32.238Z,1.57
2022-10-11T02:02:02.623Z,1.57
2022-10-11T02:04:37.592Z,1.07
2022-10-11T02:07:11.731Z,1.10
2022-10-11T02:09:45.143Z,3.63
2022-10-11T02:12:13.912Z,1.13
2022-10-11T02:14:43.883Z,1.50
2022-10-11T02:17:13.961Z,2.07
2022-10-11T02:19:51.596Z,1.10
2022-10-11T02:22:22.092Z,2.33
2022-10-11T02:24:52.430Z,1.70
2022-10-11T02:27:21.479Z,2.50
2022-10-11T02:29:49.827Z,1.80
2022-10-11T02:32:18.162Z,1.07
2022-10-11T02:34:46.859Z,1.03
2022-10-11T02:37:23.125Z,1.10
2022-10-11T02:39:55.985Z,2.40
2022-10-11T02:42:29.871Z,3.13
2022-10-11T02:45:17.847Z,2.63
2022-10-11T02:47:45.676Z,2.10
2022-10-11T02:50:13.839Z,1.93
2022-10-11T02:52:41.248Z,2.50
2022-10-11T02:55:09.060Z,1.10
2022-10-11T02:57:36.559Z,1.10
2022-10-11T03:00:04.767Z,3.33
2022-10-11T03:02:32.093Z,1.40
2022-10-11T03:04:59.843Z,1.43
2022-10-11T03:07:27.318Z,1.10
2022-10-11T03:09:54.708Z,1.20
2022-10-11T03:12:22.190Z,1.13
2022-10-11T03:14:49.663Z,1.23
2022-10-11T03:17:35.594Z,1.73
2022-10-11T03:20:04.054Z,1.53
2022-10-11T03:22:31.421Z,2.60
2022-10-11T03:25:03.542Z,1.30
2022-10-11T03:27:32.178Z,2.80
2022-10-11T03:29:59.603Z,2.20
2022-10-11T03:32:27.163Z,2.87
2022-10-11T03:34:54.487Z,1.07
2022-10-11T03:37:21.963Z,1.60
2022-10-11T03:39:49.313Z,1.03
2022-10-11T03:42:16.968Z,1.07
2022-10-11T03:44:44.423Z,2.60
2022-10-11T03:47:12.892Z,1.53
2022-10-11T03:49:43.613Z,2.73
2022-10-11T03:52:11.456Z,1.70
2022-10-11T03:54:38.836Z,1.90
2022-10-11T03:57:06.142Z,1.07
2022-10-11T03:59:33.522Z,2.43
2022-10-11T04:02:01.044Z,0.97
2022-10-11T04:04:28.522Z,1.93
2022-10-11T04:06:55.907Z,2.20
2022-10-11T04:09:23.311Z,1.83
2022-10-11T04:11:50.643Z,1.23
2022-10-11T04:14:18.055Z,2.70
2022-10-11T04:16:45.435Z,1.53
2022-10-11T04:19:12.798Z,2.47
2022-10-11T04:21:40.152Z,1.27
2022-10-11T04:24:07.684Z,1.20
2022-10-11T04:26:35.112Z,2.13
2022-10-11T04:29:02.627Z,1.20
2022-10-11T04:31:29.987Z,3.27
2022-10-11T04:33:57.431Z,0.70
2022-10-11T04:36:25.128Z,1.33
2022-10-11T04:38:52.557Z,1.20
2022-10-11T04:41:20.038Z,1.00
2022-10-11T04:43:47.528Z,1.10
2022-10-11T04:46:14.833Z,1.33
2022-10-11T04:48:42.255Z,1.27
2022-10-11T04:51:09.646Z,0.93
2022-10-11T04:53:37.383Z,1.20
2022-10-11T04:56:07.822Z,2.17
2022-10-11T04:58:35.881Z,1.37
2022-10-11T05:01:03.357Z,1.10
2022-10-11T05:03:30.898Z,3.37
2022-10-11T05:06:00.973Z,1.23
2022-10-11T05:08:32.012Z,1.10
2022-10-11T05:11:00.471Z,1.53
2022-10-11T05:13:28.643Z,1.83
2022-10-11T05:15:56.066Z,2.13
2022-10-11T05:18:23.962Z,2.07
2022-10-11T05:20:59.167Z,1.10
2022-10-11T05:23:26.674Z,2.83
2022-10-11T05:25:54.279Z,3.70
2022-10-11T05:28:21.724Z,2.70
2022-10-11T05:30:49.125Z,1.33
2022-10-11T05:33:16.724Z,1.63
2022-10-11T05:35:44.154Z,1.77
2022-10-11T05:38:11.577Z,2.73
2022-10-11T05:40:41.627Z,1.80
2022-10-11T05:43:09.396Z,2.63
2022-10-11T05:45:40.290Z,3.70
2022-10-11T05:48:08.228Z,4.97
2022-10-11T05:50:36.589Z,1.70
2022-10-11T05:53:04.085Z,2.07
2022-10-11T05:55:35.732Z,2.43
2022-10-11T05:58:03.069Z,1.77
2022-10-11T06:00:30.584Z,3.03
2022-10-11T06:02:58.008Z,3.80
2022-10-11T06:05:25.422Z,4.40
2022-10-11T06:07:52.924Z,4.40
2022-10-11T06:10:20.348Z,5.27
2022-10-11T06:12:47.642Z,4.10
2022-10-11T06:15:15.077Z,1.30
2022-10-11T06:17:42.427Z,2.33
2022-10-11T06:20:10.727Z,4.40
2022-10-11T06:22:38.173Z,1.67
2022-10-11T06:25:06.035Z,2.60
2022-10-11T06:27:33.438Z,2.40
2022-10-11T06:30:01.056Z,1.87
2022-10-11T06:32:28.392Z,2.73
2022-10-11T06:34:55.889Z,2.53
2022-10-11T06:37:23.305Z,1.90
2022-10-11T06:39:50.903Z,3.87
2022-10-11T06:42:18.424Z,2.47
2022-10-11T06:44:45.836Z,2.13
2022-10-11T06:47:13.242Z,3.77
2022-10-11T06:49:40.575Z,2.37
2022-10-11T06:52:07.943Z,3.67
2022-10-11T06:54:35.305Z,2.77
2022-10-11T06:57:02.626Z,2.20
2022-10-11T06:59:30.035Z,2.13
2022-10-11T07:01:57.378Z,1.57
2022-10-11T07:04:24.755Z,1.30
2022-10-11T07:06:52.283Z,1.27
2022-10-11T07:09:19.704Z,2.50
2022-10-11T07:11:48.979Z,1.60
2022-10-11T07:14:16.295Z,2.27
2022-10-11T07:16:43.663Z,2.23
2022-10-11T07:19:11.410Z,2.67
2022-10-11T07:21:38.797Z,1.33
2022-10-11T07:24:06.538Z,3.40
2022-10-11T07:26:38.321Z,5.53
2022-10-11T07:29:07.950Z,1.87
2022-10-11T07:31:37.030Z,1.97
2022-10-11T07:34:04.372Z,1.67
2022-10-11T07:36:31.723Z,2.03
2022-10-11T07:38:59.109Z,3.50
2022-10-11T07:41:26.482Z,1.93
2022-10-11T07:43:55.087Z,1.77
2022-10-11T07:46:22.496Z,2.00
2022-10-11T07:48:50.428Z,4.07
2022-10-11T07:51:19.156Z,2.40
2022-10-11T07:53:47.546Z,2.03
2022-10-11T07:56:16.281Z,2.50
2022-10-11T07:58:43.996Z,2.80
2022-10-11T08:01:12.228Z,2.10
2022-10-11T08:03:39.738Z,7.90
2022-10-11T08:06:09.459Z,5.40
2022-10-11T08:08:37.777Z,4.00
2022-10-11T08:11:05.730Z,3.77
2022-10-11T08:13:33.518Z,5.30
2022-10-11T08:16:01.795Z,1.80
2022-10-11T08:18:29.475Z,2.43
2022-10-11T08:20:56.858Z,2.90
2022-10-11T08:23:24.240Z,2.50
2022-10-11T08:25:58.260Z,3.03
2022-10-11T08:28:25.842Z,2.23
2022-10-11T08:30:54.299Z,2.43
2022-10-11T08:33:22.914Z,2.13
2022-10-11T08:35:51.928Z,2.00
2022-10-11T08:38:19.750Z,1.80
2022-10-11T08:40:50.716Z,1.33
2022-10-11T08:43:36.846Z,2.20
2022-10-11T08:46:05.760Z,1.60
2022-10-11T08:48:37.566Z,2.10
2022-10-11T08:51:16.287Z,1.47
2022-10-11T08:53:43.945Z,1.13
2022-10-11T08:56:13.610Z,2.00
2022-10-11T08:59:03.024Z,2.10
2022-10-11T09:01:31.956Z,2.47
2022-10-11T09:04:00.307Z,1.08
2022-10-11T09:06:31.685Z,1.20
2022-10-11T09:09:11.412Z,1.83
2022-10-11T09:11:54.902Z,1.40
2022-10-11T09:14:22.403Z,1.20
2022-10-11T09:16:58.781Z,1.42
2022-10-11T09:19:32.623Z,1.02
2022-10-11T09:22:05.853Z,1.90
2022-10-11T09:24:51.940Z,1.10
2022-10-11T09:27:29.105Z,2.67
2022-10-11T09:30:16.569Z,1.65
2022-10-11T09:32:46.814Z,1.55
2022-10-11T09:35:21.662Z,2.33
2022-10-11T09:38:07.343Z,4.75
2022-10-11T09:40:34.732Z,2.05
2022-10-11T09:43:02.043Z,1.02
2022-10-11T09:45:29.496Z,1.10
2022-10-11T09:47:58.615Z,3.53
2022-10-11T09:50:28.456Z,2.03
2022-10-11T09:52:57.358Z,1.00
2022-10-11T09:55:33.110Z,3.95
2022-10-11T09:58:00.668Z,1.23
2022-10-11T10:00:29.469Z,1.13
2022-10-11T10:02:58.140Z,1.20
2022-10-11T10:05:26.789Z,3.15
2022-10-11T10:08:04.296Z,1.27
2022-10-11T10:10:38.832Z,1.58
2022-10-11T10:13:15.537Z,1.42
2022-10-11T10:15:46.037Z,1.25
2022-10-11T10:18:19.702Z,2.38
2022-10-11T10:20:54.819Z,0.95
2022-10-11T10:23:30.073Z,0.90
2022-10-11T10:26:11.727Z,1.52
2022-10-11T10:28:39.494Z,2.78
2022-10-11T10:31:19.070Z,2.33
2022-10-11T10:33:47.925Z,2.45
2022-10-11T10:36:24.857Z,0.75
2022-10-11T10:39:00.423Z,1.35
2022-10-11T10:41:27.960Z,0.75
2022-10-11T10:43:59.835Z,0.57
2022-10-11T10:46:27.254Z,1.80
2022-10-11T10:52:03.419Z,0.70
2022-10-11T10:54:30.751Z,0.80
2022-10-11T10:57:03.022Z,3.88
2022-10-11T10:59:42.423Z,0.85
2022-10-11T11:02:35.095Z,0.60
2022-10-11T11:05:05.557Z,1.13
2022-10-11T11:07:59.293Z,1.58
2022-10-11T11:10:31.432Z,1.02
2022-10-11T11:13:07.949Z,0.63
2022-10-11T11:15:43.863Z,3.60
2022-10-11T11:18:40.253Z,1.65
2022-10-11T11:21:13.320Z,1.08
2022-10-11T11:23:55.913Z,0.85
2022-10-11T11:26:23.291Z,3.65
2022-10-11T11:29:00.972Z,1.33
2022-10-11T11:31:46.662Z,1.45
2022-10-11T11:34:19.829Z,1.10
2022-10-11T11:36:50.667Z,1.52
2022-10-11T11:39:20.117Z,1.40
2022-10-11T11:41:56.176Z,2.17
2022-10-11T11:44:43.861Z,1.90
2022-10-11T11:47:19.738Z,0.80
2022-10-11T11:50:00.654Z,0.93
2022-10-11T11:52:34.511Z,1.65
2022-10-11T11:55:22.082Z,1.33
2022-10-11T11:57:55.606Z,1.08
2022-10-11T12:00:24.959Z,1.05
2022-10-11T12:03:01.238Z,1.58
2022-10-11T12:05:31.178Z,0.90
2022-10-11T12:08:00.766Z,1.02
2022-10-11T12:10:54.594Z,1.85
2022-10-11T12:13:28.460Z,1.17
2022-10-11T12:16:01.685Z,0.65
2022-10-11T12:18:30.843Z,2.00
2022-10-11T12:21:06.891Z,0.90
2022-10-11T12:23:54.437Z,1.25
2022-10-11T12:26:34.073Z,1.95
2022-10-11T12:29:22.444Z,1.23
2022-10-11T12:32:00.179Z,1.67
2022-10-11T12:34:27.580Z,1.08
2022-10-11T12:36:55.029Z,1.33
2022-10-11T12:39:22.888Z,1.85
2022-10-11T12:41:50.431Z,2.40
2022-10-11T12:44:20.875Z,1.65
2022-10-11T12:46:51.057Z,1.60
2022-10-11T12:49:36.766Z,1.45
2022-10-11T12:52:10.078Z,1.38
2022-10-11T12:54:37.622Z,1.30
2022-10-11T12:57:17.312Z,1.00
2022-10-11T12:59:46.026Z,0.70
2022-10-11T13:02:28.843Z,1.95
2022-10-11T13:05:12.625Z,1.30
2022-10-11T13:07:41.829Z,3.60
2022-10-11T13:10:09.273Z,2.85
2022-10-11T13:12:41.285Z,2.42
2022-10-11T13:15:16.932Z,2.40
2022-10-11T13:17:44.464Z,1.35
2022-10-11T13:20:17.897Z,3.40
2022-10-11T13:22:55.908Z,1.52
2022-10-11T13:25:24.315Z,4.60
2022-10-11T13:27:53.595Z,1.10
2022-10-11T13:30:43.189Z,1.30
2022-10-11T13:33:18.593Z,1.17
2022-10-11T13:35:46.015Z,2.13
2022-10-11T13:38:20.808Z,2.78
2022-10-11T13:40:50.827Z,1.33
2022-10-11T13:43:21.301Z,1.98
2022-10-11T13:45:48.790Z,2.22
2022-10-11T13:48:17.237Z,1.67
2022-10-11T13:50:52.293Z,3.17
2022-10-11T13:53:19.693Z,3.00
2022-10-11T13:56:16.433Z,3.15
2022-10-11T13:58:47.739Z,1.35
2022-10-11T14:01:20.875Z,2.60
2022-10-11T14:04:00.081Z,4.75
2022-10-11T14:06:45.806Z,7.95
2022-10-11T14:09:18.532Z,2.60
2022-10-11T14:11:45.999Z,2.08
2022-10-11T14:14:29.115Z,2.45
2022-10-11T14:16:57.608Z,1.92
2022-10-11T14:19:25.237Z,1.63
2022-10-11T14:21:53.443Z,2.35
2022-10-11T14:24:20.959Z,1.20
2022-10-11T14:26:50.231Z,3.88
2022-10-11T14:29:20.280Z,1.80
2022-10-11T14:31:47.832Z,1.83
2022-10-11T14:34:17.899Z,1.63
2022-10-11T14:36:45.568Z,3.10
2022-10-11T14:39:20.722Z,1.60
2022-10-11T14:41:48.242Z,1.77
2022-10-11T14:44:16.954Z,3.28
2022-10-11T14:46:44.712Z,2.67
2022-10-11T14:49:16.172Z,1.13
2022-10-11T14:51:44.228Z,1.92
2022-10-11T14:54:13.354Z,1.35
2022-10-11T14:56:40.929Z,3.15
2022-10-11T14:59:08.371Z,1.35
2022-10-11T15:01:35.898Z,1.50
2022-10-11T15:04:03.317Z,2.13
2022-10-11T15:06:33.459Z,1.48
2022-10-11T15:09:00.867Z,2.50
2022-10-11T15:11:28.227Z,1.73
2022-10-11T15:13:55.653Z,3.15
2022-10-11T15:16:23.106Z,1.63
2022-10-11T15:18:52.053Z,5.18
2022-10-11T15:21:20.614Z,1.42
2022-10-11T15:23:48.924Z,1.50
2022-10-11T15:26:18.279Z,1.48
2022-10-11T15:28:46.531Z,1.80
2022-10-11T15:31:14.521Z,4.43
2022-10-11T15:33:42.159Z,1.23
2022-10-11T15:36:12.520Z,3.25
2022-10-11T15:38:40.038Z,2.55
2022-10-11T15:41:08.599Z,3.20
2022-10-11T15:43:35.979Z,1.27
2022-10-11T15:46:04.682Z,2.00
2022-10-11T15:48:33.219Z,2.33
2022-10-11T15:51:00.620Z,2.67
2022-10-11T15:53:31.296Z,4.32
2022-10-11T15:56:24.719Z,7.43
2022-10-11T15:58:52.140Z,2.90
2022-10-11T16:01:20.768Z,3.05
2022-10-11T16:03:48.910Z,2.10
2022-10-11T16:06:16.659Z,3.10
2022-10-11T16:08:44.027Z,2.35
2022-10-11T16:11:11.926Z,5.88
2022-10-11T16:13:39.438Z,4.70
2022-10-11T16:16:08.155Z,4.68
2022-10-11T16:18:36.273Z,3.72
2022-10-11T16:21:06.972Z,2.67
2022-10-11T16:23:35.463Z,2.83
2022-10-11T16:26:04.546Z,2.42
2022-10-11T16:28:32.407Z,3.78
2022-10-11T16:31:00.035Z,1.65
2022-10-11T16:33:27.829Z,4.22
2022-10-11T16:36:15.126Z,2.78
2022-10-11T16:38:42.513Z,1.65
2022-10-11T16:41:09.951Z,3.97
2022-10-11T16:43:37.399Z,4.00
2022-10-11T16:46:05.049Z,1.25
2022-10-11T16:48:32.641Z,1.33
2022-10-11T16:51:05.857Z,3.40
2022-10-11T16:53:36.616Z,3.85
2022-10-11T16:56:08.338Z,1.40
2022-10-11T16:58:36.585Z,1.55
2022-10-11T17:01:08.809Z,3.50
2022-10-11T17:03:36.299Z,3.00
2022-10-11T17:06:04.869Z,4.72
2022-10-11T17:08:32.714Z,15.20
2022-10-11T17:11:00.503Z,6.72
2022-10-11T17:13:27.929Z,10.23
2022-10-11T17:15:55.393Z,2.95
2022-10-11T17:18:22.874Z,3.72
2022-10-11T17:20:50.234Z,4.82
2022-10-11T17:23:17.655Z,11.95
2022-10-11T17:25:46.089Z,4.70
2022-10-11T17:28:13.578Z,2.85
2022-10-11T17:30:42.217Z,3.65
2022-10-11T17:33:09.739Z,7.60
2022-10-11T17:35:37.164Z,3.50
2022-10-11T17:38:06.305Z,7.93
2022-10-11T17:40:33.924Z,4.38
2022-10-11T17:43:04.549Z,5.60
2022-10-11T17:45:32.059Z,4.50
2022-10-11T17:48:00.747Z,3.85
2022-10-11T17:50:28.126Z,5.00
2022-10-11T17:52:57.961Z,21.45
2022-10-11T17:55:25.540Z,34.08
2022-10-11T17:57:52.939Z,7.57
2022-10-11T18:00:20.323Z,3.95
2022-10-11T18:02:48.542Z,5.50
2022-10-11T18:05:17.755Z,2.60
2022-10-11T18:07:45.137Z,3.70
2022-10-11T18:10:12.543Z,17.27
2022-10-11T18:12:40.008Z,38.83
2022-10-11T18:15:07.707Z,35.22
2022-10-11T18:17:35.097Z,25.27
2022-10-11T18:20:02.771Z,19.05
2022-10-11T18:22:30.107Z,6.97
2022-10-11T18:25:00.506Z,5.50
2022-10-11T18:27:29.195Z,6.15
2022-10-11T18:29:56.546Z,5.35
2022-10-11T18:32:24.030Z,6.45
2022-10-11T18:34:51.399Z,4.03
2022-10-11T18:37:18.795Z,4.13
2022-10-11T18:39:46.414Z,4.30
2022-10-11T18:42:13.729Z,5.03
2022-10-11T18:44:41.181Z,2.20
2022-10-11T18:47:08.572Z,5.70
2022-10-11T18:49:36.068Z,4.43
2022-10-11T18:52:03.444Z,4.05
2022-10-11T18:54:30.932Z,3.03
2022-10-11T18:57:00.383Z,3.85
2022-10-11T18:59:27.815Z,5.95
2022-10-11T19:01:55.346Z,5.33
2022-10-11T19:04:22.906Z,3.58
2022-10-11T19:06:50.751Z,2.73
2022-10-11T19:09:21.880Z,3.97
2022-10-11T19:11:53.534Z,5.80
2022-10-11T19:14:22.353Z,3.20
2022-10-11T19:16:51.654Z,1.95
2022-10-11T19:19:26.494Z,2.95
2022-10-11T19:21:54.402Z,4.05
2022-10-11T19:24:23.357Z,3.97
2022-10-11T19:26:51.711Z,2.53
2022-10-11T19:29:20.056Z,2.50
2022-10-11T19:31:52.020Z,2.40
2022-10-11T19:34:20.019Z,4.40
2022-10-11T19:36:50.202Z,6.18
2022-10-11T19:39:18.725Z,3.05
2022-10-11T19:41:46.232Z,3.37
2022-10-11T19:44:14.054Z,3.78
2022-10-11T19:46:51.427Z,6.70
2022-10-11T19:49:22.680Z,6.88
2022-10-11T19:51:50.197Z,3.92
2022-10-11T19:54:17.867Z,3.73
2022-10-11T19:56:45.258Z,3.20
2022-10-11T19:59:14.398Z,3.50
2022-10-11T20:01:43.301Z,3.60
2022-10-11T20:04:33.065Z,2.60
2022-10-11T20:07:00.801Z,2.60
2022-10-11T20:09:29.981Z,3.45
2022-10-11T20:11:58.106Z,1.80
2022-10-11T20:14:25.780Z,2.83
2022-10-11T20:16:53.182Z,3.83
2022-10-11T20:19:25.043Z,4.03
2022-10-11T20:21:56.832Z,2.53
2022-10-11T20:24:24.275Z,3.97
2022-10-11T20:26:51.759Z,3.20
2022-10-11T20:29:19.239Z,3.07
2022-10-11T20:31:46.840Z,4.37
2022-10-11T20:34:15.759Z,2.53
2022-10-11T20:36:48.229Z,5.37
2022-10-11T20:39:16.539Z,2.33
2022-10-11T20:41:43.999Z,3.27
2022-10-11T20:44:13.201Z,3.50
2022-10-11T20:46:40.786Z,2.90
2022-10-11T20:49:09.178Z,4.32
2022-10-11T20:51:37.701Z,3.70
2022-10-11T20:54:05.259Z,6.37
2022-10-11T20:56:33.789Z,3.40
2022-10-11T20:59:01.439Z,2.37
2022-10-11T21:01:33.679Z,12.32
2022-10-11T21:04:01.779Z,3.17
2022-10-11T21:06:29.961Z,3.63
2022-10-11T21:08:59.263Z,4.07
2022-10-11T21:11:31.353Z,4.47
2022-10-11T21:14:03.100Z,5.27
2022-10-11T21:16:30.406Z,28.20
2022-10-11T21:18:59.178Z,7.88
2022-10-11T21:21:27.018Z,4.18
2022-10-11T21:23:55.027Z,4.32
2022-10-11T21:26:22.458Z,3.40
2022-10-11T21:28:49.900Z,2.33
2022-10-11T21:31:18.566Z,2.87
2022-10-11T21:33:46.023Z,3.60
2022-10-11T21:36:20.767Z,3.07
2022-10-11T21:38:48.472Z,4.40
2022-10-11T21:41:17.408Z,3.30
2022-10-11T21:43:45.127Z,3.57
2022-10-11T21:46:17.228Z,2.63
2022-10-11T21:48:44.840Z,2.67
2022-10-11T21:51:16.582Z,3.37
2022-10-11T21:53:43.967Z,5.13
2022-10-11T21:56:11.346Z,2.47
2022-10-11T21:58:38.740Z,4.80
2022-10-11T22:01:06.231Z,2.73
2022-10-11T22:03:33.779Z,5.60
2022-10-11T22:06:04.246Z,2.47
2022-10-11T22:08:31.901Z,3.90
2022-10-11T22:11:00.222Z,6.57
2022-10-11T22:13:28.213Z,2.70
2022-10-11T22:15:58.410Z,6.37
2022-10-11T22:18:27.379Z,2.27
2022-10-11T22:21:05.063Z,3.57
2022-10-11T22:23:32.562Z,3.50
2022-10-11T22:26:04.104Z,4.10
2022-10-11T22:28:31.515Z,5.90
2022-10-11T22:30:58.966Z,2.37
2022-10-11T22:33:26.616Z,3.53
2022-10-11T22:35:55.037Z,5.53
2022-10-11T22:38:22.921Z,4.83
2022-10-11T22:40:50.316Z,3.80
2022-10-11T22:43:18.313Z,4.53
2022-10-11T22:45:45.817Z,4.80
2022-10-11T22:48:13.736Z,8.90
2022-10-11T22:50:41.232Z,4.97
2022-10-11T22:53:08.953Z,3.47
2022-10-11T22:55:36.507Z,3.30
2022-10-11T22:58:03.936Z,3.17
2022-10-11T23:00:31.437Z,3.03
2022-10-11T23:02:58.929Z,4.63
2022-10-11T23:05:26.528Z,2.10
2022-10-11T23:07:53.924Z,3.53
2022-10-11T23:10:21.413Z,4.50
2022-10-11T23:12:48.822Z,3.83
2022-10-11T23:15:16.250Z,1.93
2022-10-11T23:17:43.716Z,3.80
2022-10-11T23:20:11.474Z,2.97
2022-10-11T23:22:38.913Z,3.67
2022-10-11T23:25:09.566Z,3.07
2022-10-11T23:27:37.219Z,6.90
2022-10-11T23:30:05.294Z,3.63
2022-10-11T23:32:32.749Z,4.70
2022-10-11T23:35:00.152Z,3.33
2022-10-11T23:37:27.538Z,5.87
2022-10-11T23:39:54.892Z,4.80
2022-10-11T23:42:22.318Z,4.13
2022-10-11T23:44:49.754Z,3.53
2022-10-11T23:47:17.112Z,4.60
2022-10-11T23:49:44.477Z,4.23
2022-10-11T23:52:11.825Z,3.47
2022-10-11T23:54:39.171Z,4.23
2022-10-11T23:57:09.288Z,4.10
2022-10-11T23:59:36.619Z,5.83
